Terminal Aerodrome Forecast
Issued by NWS Upton, NY

Home | Current Version | Previous Version | Text Only | Print | Product List | Glossary On
Versions: 1 2 3 4 5 6 7 8 9 10 11 12 13 14 15 16 17 18 19 20 21 22 23 24 25 26 27 28 29 30 31 32 33 34 35 36 37 38 39 40 41 42 43 44 45 46 47 48 49 50
000
FTUS41 KOKX 171331 AAA
TAFJFK
TAF AMD
KJFK 171331Z 1714/1818 03006KT P6SM FEW015 BKN030
     FM171700 15006KT P6SM BKN035
     FM172100 16005KT P6SM VCTS SCT025 BKN040CB
      TEMPO 1721/1801 5SM -SHRA BKN030
     FM180200 16005KT 5SM -SHRA BR SCT015 BKN025
     FM181400 VRB05KT P6SM BKN025=

USA.gov is the U.S. government's official web portal to all federal, state and local government web resources and services.